sensor_id;sensor_type;location;lat;lon;timestamp;pressure;altitude;pressure_sealevel;temperature
31921;BMP280;66485;52.128;4.436;2023-02-26T00:02:22;102059.75;;;16.77
31921;BMP280;66485;52.128;4.436;2023-02-26T00:04:48;102068.63;;;16.74
31921;BMP280;66485;52.128;4.436;2023-02-26T00:07:13;102070.56;;;16.73
31921;BMP280;66485;52.128;4.436;2023-02-26T00:09:38;102070.22;;;16.78
31921;BMP280;66485;52.128;4.436;2023-02-26T00:12:04;102072.91;;;16.78
31921;BMP280;66485;52.128;4.436;2023-02-26T00:14:30;102072.56;;;16.80
31921;BMP280;66485;52.128;4.436;2023-02-26T00:17:22;102082.22;;;16.81
31921;BMP280;66485;52.128;4.436;2023-02-26T00:19:50;102085.72;;;16.81
31921;BMP280;66485;52.128;4.436;2023-02-26T00:22:16;102089.22;;;16.82
31921;BMP280;66485;52.128;4.436;2023-02-26T00:24:41;102095.81;;;16.84
31921;BMP280;66485;52.128;4.436;2023-02-26T00:27:09;102091.53;;;16.83
31921;BMP280;66485;52.128;4.436;2023-02-26T00:29:35;102095.41;;;16.82
31921;BMP280;66485;52.128;4.436;2023-02-26T00:32:00;102095.41;;;16.82
31921;BMP280;66485;52.128;4.436;2023-02-26T00:34:26;102094.97;;;16.80
31921;BMP280;66485;52.128;4.436;2023-02-26T00:39:48;102108.50;;;16.80
31921;BMP280;66485;52.128;4.436;2023-02-26T00:42:15;102116.25;;;16.82
31921;BMP280;66485;52.128;4.436;2023-02-26T00:44:41;102115.50;;;16.81
31921;BMP280;66485;52.128;4.436;2023-02-26T00:47:16;102118.97;;;16.82
31921;BMP280;66485;52.128;4.436;2023-02-26T00:55:11;102123.91;;;16.76
31921;BMP280;66485;52.128;4.436;2023-02-26T00:57:36;102132.03;;;16.73
31921;BMP280;66485;52.128;4.436;2023-02-26T01:00:03;102137.41;;;16.69
31921;BMP280;66485;52.128;4.436;2023-02-26T01:02:32;102128.50;;;16.69
31921;BMP280;66485;52.128;4.436;2023-02-26T01:04:57;102135.50;;;16.73
31921;BMP280;66485;52.128;4.436;2023-02-26T01:07:24;102139.38;;;16.76
31921;BMP280;66485;52.128;4.436;2023-02-26T01:09:51;102139.38;;;16.76
31921;BMP280;66485;52.128;4.436;2023-02-26T01:12:16;102144.47;;;16.81
31921;BMP280;66485;52.128;4.436;2023-02-26T01:14:43;102144.47;;;16.81
31921;BMP280;66485;52.128;4.436;2023-02-26T01:17:17;102149.53;;;16.82
31921;BMP280;66485;52.128;4.436;2023-02-26T01:19:56;102151.09;;;16.83
31921;BMP280;66485;52.128;4.436;2023-02-26T01:22:49;102151.09;;;16.83
31921;BMP280;66485;52.128;4.436;2023-02-26T01:25:26;102165.34;;;16.80
31921;BMP280;66485;52.128;4.436;2023-02-26T01:27:53;102165.34;;;16.80
31921;BMP280;66485;52.128;4.436;2023-02-26T01:30:21;102173.03;;;16.78
31921;BMP280;66485;52.128;4.436;2023-02-26T01:35:45;102176.53;;;16.79
31921;BMP280;66485;52.128;4.436;2023-02-26T01:43:51;102181.59;;;16.80
31921;BMP280;66485;52.128;4.436;2023-02-26T01:49:04;102187.66;;;16.70
31921;BMP280;66485;52.128;4.436;2023-02-26T01:54:24;102193.88;;;16.74
31921;BMP280;66485;52.128;4.436;2023-02-26T01:56:55;102195.03;;;16.73
31921;BMP280;66485;52.128;4.436;2023-02-26T01:59:21;102194.69;;;16.78
31921;BMP280;66485;52.128;4.436;2023-02-26T02:01:51;102195.13;;;16.80
31921;BMP280;66485;52.128;4.436;2023-02-26T02:04:16;102201.25;;;16.77
31921;BMP280;66485;52.128;4.436;2023-02-26T02:06:43;102199.31;;;16.78
31921;BMP280;66485;52.128;4.436;2023-02-26T02:09:09;102199.31;;;16.78
31921;BMP280;66485;52.128;4.436;2023-02-26T02:11:39;102212.06;;;16.74
31921;BMP280;66485;52.128;4.436;2023-02-26T02:14:29;102205.53;;;16.78
31921;BMP280;66485;52.128;4.436;2023-02-26T02:17:18;102211.34;;;16.80
31921;BMP280;66485;52.128;4.436;2023-02-26T02:31:14;102222.59;;;16.82
31921;BMP280;66485;52.128;4.436;2023-02-26T02:34:12;102233.00;;;16.80
31921;BMP280;66485;52.128;4.436;2023-02-26T02:36:46;102233.00;;;16.80
31921;BMP280;66485;52.128;4.436;2023-02-26T02:39:19;102232.16;;;16.76
31921;BMP280;66485;52.128;4.436;2023-02-26T02:41:50;102247.72;;;16.79
31921;BMP280;66485;52.128;4.436;2023-02-26T02:44:18;102247.72;;;16.79
31921;BMP280;66485;52.128;4.436;2023-02-26T02:46:46;102251.53;;;16.78
31921;BMP280;66485;52.128;4.436;2023-02-26T02:49:17;102253.44;;;16.78
31921;BMP280;66485;52.128;4.436;2023-02-26T02:51:54;102253.44;;;16.78
31921;BMP280;66485;52.128;4.436;2023-02-26T02:54:30;102265.41;;;16.77
31921;BMP280;66485;52.128;4.436;2023-02-26T02:57:06;102264.63;;;16.76
31921;BMP280;66485;52.128;4.436;2023-02-26T02:59:44;102264.63;;;16.76
31921;BMP280;66485;52.128;4.436;2023-02-26T03:04:55;102251.38;;;16.67
31921;BMP280;66485;52.128;4.436;2023-02-26T03:07:21;102269.59;;;16.71
31921;BMP280;66485;52.128;4.436;2023-02-26T03:09:46;102265.75;;;16.72
31921;BMP280;66485;52.128;4.436;2023-02-26T03:12:12;102280.84;;;16.73
31921;BMP280;66485;52.128;4.436;2023-02-26T03:14:38;102280.84;;;16.73
31921;BMP280;66485;52.128;4.436;2023-02-26T03:17:24;102271.19;;;16.75
31921;BMP280;66485;52.128;4.436;2023-02-26T03:22:45;102276.16;;;16.70
31921;BMP280;66485;52.128;4.436;2023-02-26T03:28:08;102284.69;;;16.72
31921;BMP280;66485;52.128;4.436;2023-02-26T03:31:00;102283.56;;;16.76
31921;BMP280;66485;52.128;4.436;2023-02-26T03:37:02;102287.06;;;16.77
31921;BMP280;66485;52.128;4.436;2023-02-26T03:39:52;102287.06;;;16.77
31921;BMP280;66485;52.128;4.436;2023-02-26T03:42:24;102292.44;;;16.73
31921;BMP280;66485;52.128;4.436;2023-02-26T03:45:05;102295.16;;;16.73
31921;BMP280;66485;52.128;4.436;2023-02-26T03:47:32;102290.88;;;16.72
31921;BMP280;66485;52.128;4.436;2023-02-26T03:50:13;102292.44;;;16.73
31921;BMP280;66485;52.128;4.436;2023-02-26T03:52:41;102303.66;;;16.75
31921;BMP280;66485;52.128;4.436;2023-02-26T03:55:12;102306.75;;;16.74
31921;BMP280;66485;52.128;4.436;2023-02-26T03:57:39;102307.13;;;16.72
31921;BMP280;66485;52.128;4.436;2023-02-26T04:00:05;102307.13;;;16.72
31921;BMP280;66485;52.128;4.436;2023-02-26T04:02:40;102300.16;;;16.71
31921;BMP280;66485;52.128;4.436;2023-02-26T04:05:11;102312.84;;;16.67
31921;BMP280;66485;52.128;4.436;2023-02-26T04:07:38;102312.84;;;16.67
31921;BMP280;66485;52.128;4.436;2023-02-26T04:10:05;102308.56;;;16.66
31921;BMP280;66485;52.128;4.436;2023-02-26T04:12:32;102320.94;;;16.67
31921;BMP280;66485;52.128;4.436;2023-02-26T04:14:57;102321.69;;;16.64
31921;BMP280;66485;52.128;4.436;2023-02-26T04:17:23;102329.41;;;16.62
31921;BMP280;66485;52.128;4.436;2023-02-26T04:19:48;102329.41;;;16.62
31921;BMP280;66485;52.128;4.436;2023-02-26T04:22:14;102334.00;;;16.58
31921;BMP280;66485;52.128;4.436;2023-02-26T04:24:40;102334.00;;;16.58
31921;BMP280;66485;52.128;4.436;2023-02-26T04:27:05;102327.84;;;16.61
31921;BMP280;66485;52.128;4.436;2023-02-26T04:29:30;102327.84;;;16.61
31921;BMP280;66485;52.128;4.436;2023-02-26T04:31:55;102317.00;;;16.61
31921;BMP280;66485;52.128;4.436;2023-02-26T04:34:21;102326.31;;;16.63
31921;BMP280;66485;52.128;4.436;2023-02-26T04:36:46;102326.31;;;16.63
31921;BMP280;66485;52.128;4.436;2023-02-26T04:39:11;102335.97;;;16.64
31921;BMP280;66485;52.128;4.436;2023-02-26T04:41:37;102335.97;;;16.64
31921;BMP280;66485;52.128;4.436;2023-02-26T04:44:04;102344.41;;;16.59
31921;BMP280;66485;52.128;4.436;2023-02-26T04:46:30;102344.41;;;16.59
31921;BMP280;66485;52.128;4.436;2023-02-26T04:48:55;102354.56;;;16.66
31921;BMP280;66485;52.128;4.436;2023-02-26T04:51:21;102359.56;;;16.64
31921;BMP280;66485;52.128;4.436;2023-02-26T04:53:46;102360.34;;;16.64
31921;BMP280;66485;52.128;4.436;2023-02-26T04:56:12;102360.34;;;16.64
31921;BMP280;66485;52.128;4.436;2023-02-26T04:58:37;102362.69;;;16.66
31921;BMP280;66485;52.128;4.436;2023-02-26T05:01:03;102366.16;;;16.66
31921;BMP280;66485;52.128;4.436;2023-02-26T05:03:28;102368.44;;;16.64
31921;BMP280;66485;52.128;4.436;2023-02-26T05:05:53;102368.44;;;16.64
31921;BMP280;66485;52.128;4.436;2023-02-26T05:08:19;102373.81;;;16.61
31921;BMP280;66485;52.128;4.436;2023-02-26T05:10:45;102373.81;;;16.61
31921;BMP280;66485;52.128;4.436;2023-02-26T05:13:10;102368.03;;;16.59
31921;BMP280;66485;52.128;4.436;2023-02-26T05:15:35;102381.94;;;16.61
31921;BMP280;66485;52.128;4.436;2023-02-26T05:18:01;102373.44;;;16.59
31921;BMP280;66485;52.128;4.436;2023-02-26T05:20:26;102384.25;;;16.59
31921;BMP280;66485;52.128;4.436;2023-02-26T05:22:51;102382.69;;;16.58
31921;BMP280;66485;52.128;4.436;2023-02-26T05:25:17;102382.69;;;16.58
31921;BMP280;66485;52.128;4.436;2023-02-26T05:27:43;102391.97;;;16.60
31921;BMP280;66485;52.128;4.436;2023-02-26T05:30:10;102387.72;;;16.59
31921;BMP280;66485;52.128;4.436;2023-02-26T05:32:37;102393.13;;;16.59
31921;BMP280;66485;52.128;4.436;2023-02-26T05:35:03;102393.13;;;16.59
31921;BMP280;66485;52.128;4.436;2023-02-26T05:37:28;102396.06;;;16.51
31921;BMP280;66485;52.128;4.436;2023-02-26T05:39:54;102397.28;;;16.53
31921;BMP280;66485;52.128;4.436;2023-02-26T05:42:19;102397.28;;;16.53
31921;BMP280;66485;52.128;4.436;2023-02-26T05:44:45;102405.78;;;16.55
31921;BMP280;66485;52.128;4.436;2023-02-26T05:47:10;102408.16;;;16.57
31921;BMP280;66485;52.128;4.436;2023-02-26T05:49:35;102406.66;;;16.59
31921;BMP280;66485;52.128;4.436;2023-02-26T05:52:01;102412.84;;;16.60
31921;BMP280;66485;52.128;4.436;2023-02-26T05:54:27;102412.84;;;16.60
31921;BMP280;66485;52.128;4.436;2023-02-26T05:56:52;102423.25;;;16.58
31921;BMP280;66485;52.128;4.436;2023-02-26T05:59:17;102423.25;;;16.58
31921;BMP280;66485;52.128;4.436;2023-02-26T06:01:43;102418.53;;;16.55
31921;BMP280;66485;52.128;4.436;2023-02-26T06:04:08;102426.75;;;16.58
31921;BMP280;66485;52.128;4.436;2023-02-26T06:06:34;102426.75;;;16.58
31921;BMP280;66485;52.128;4.436;2023-02-26T06:08:59;102430.63;;;16.61
31921;BMP280;66485;52.128;4.436;2023-02-26T06:11:27;102430.63;;;16.61
31921;BMP280;66485;52.128;4.436;2023-02-26T06:13:52;102447.31;;;16.63
31921;BMP280;66485;52.128;4.436;2023-02-26T06:16:17;102447.31;;;16.63
31921;BMP280;66485;52.128;4.436;2023-02-26T06:18:44;102467.81;;;16.64
31921;BMP280;66485;52.128;4.436;2023-02-26T06:21:09;102463.09;;;16.61
31921;BMP280;66485;52.128;4.436;2023-02-26T06:23:35;102463.09;;;16.61
31921;BMP280;66485;52.128;4.436;2023-02-26T06:26:00;102472.78;;;16.62
31921;BMP280;66485;52.128;4.436;2023-02-26T06:28:26;102472.78;;;16.62
31921;BMP280;66485;52.128;4.436;2023-02-26T06:30:52;102478.56;;;16.60
31921;BMP280;66485;52.128;4.436;2023-02-26T06:33:18;102482.41;;;16.59
31921;BMP280;66485;52.128;4.436;2023-02-26T06:35:43;102493.59;;;16.58
31921;BMP280;66485;52.128;4.436;2023-02-26T06:38:08;102493.59;;;16.58
31921;BMP280;66485;52.128;4.436;2023-02-26T06:40:33;102500.59;;;16.59
31921;BMP280;66485;52.128;4.436;2023-02-26T06:42:59;102500.59;;;16.59
31921;BMP280;66485;52.128;4.436;2023-02-26T06:45:31;102490.53;;;16.59
31921;BMP280;66485;52.128;4.436;2023-02-26T06:47:56;102503.97;;;16.56
31921;BMP280;66485;52.128;4.436;2023-02-26T06:50:21;102503.97;;;16.56
31921;BMP280;66485;52.128;4.436;2023-02-26T06:52:46;102507.78;;;16.51
31921;BMP280;66485;52.128;4.436;2023-02-26T06:55:12;102512.09;;;16.56
31921;BMP280;66485;52.128;4.436;2023-02-26T06:57:37;102512.09;;;16.56
31921;BMP280;66485;52.128;4.436;2023-02-26T07:00:04;102526.84;;;16.58
31921;BMP280;66485;52.128;4.436;2023-02-26T07:02:30;102531.97;;;16.63
31921;BMP280;66485;52.128;4.436;2023-02-26T07:04:55;102531.97;;;16.63
31921;BMP280;66485;52.128;4.436;2023-02-26T07:07:20;102539.28;;;16.63
31921;BMP280;66485;52.128;4.436;2023-02-26T07:09:46;102548.13;;;16.60
31921;BMP280;66485;52.128;4.436;2023-02-26T07:12:11;102548.13;;;16.60
31921;BMP280;66485;52.128;4.436;2023-02-26T07:14:37;102548.25;;;16.67
31921;BMP280;66485;52.128;4.436;2023-02-26T07:17:02;102554.00;;;16.65
31921;BMP280;66485;52.128;4.436;2023-02-26T07:19:28;102553.66;;;16.67
31921;BMP280;66485;52.128;4.436;2023-02-26T07:21:53;102551.28;;;16.65
31921;BMP280;66485;52.128;4.436;2023-02-26T07:24:20;102551.28;;;16.65
31921;BMP280;66485;52.128;4.436;2023-02-26T07:26:45;102561.44;;;16.69
31921;BMP280;66485;52.128;4.436;2023-02-26T07:29:10;102561.44;;;16.69
31921;BMP280;66485;52.128;4.436;2023-02-26T07:31:36;102566.13;;;16.72
31921;BMP280;66485;52.128;4.436;2023-02-26T07:34:01;102571.53;;;16.72
31921;BMP280;66485;52.128;4.436;2023-02-26T07:36:27;102571.53;;;16.72
31921;BMP280;66485;52.128;4.436;2023-02-26T07:38:52;102580.13;;;16.77
31921;BMP280;66485;52.128;4.436;2023-02-26T07:41:18;102586.31;;;16.78
31921;BMP280;66485;52.128;4.436;2023-02-26T07:43:43;102586.31;;;16.78
31921;BMP280;66485;52.128;4.436;2023-02-26T07:46:08;102591.03;;;16.81
31921;BMP280;66485;52.128;4.436;2023-02-26T07:48:34;102592.94;;;16.80
31921;BMP280;66485;52.128;4.436;2023-02-26T07:51:01;102592.94;;;16.80
31921;BMP280;66485;52.128;4.436;2023-02-26T07:53:26;102591.41;;;16.79
31921;BMP280;66485;52.128;4.436;2023-02-26T07:55:51;102591.81;;;16.81
31921;BMP280;66485;52.128;4.436;2023-02-26T07:58:17;102596.50;;;16.84
31921;BMP280;66485;52.128;4.436;2023-02-26T08:00:43;102602.69;;;16.85
31921;BMP280;66485;52.128;4.436;2023-02-26T08:03:08;102599.63;;;16.86
31921;BMP280;66485;52.128;4.436;2023-02-26T08:05:34;102600.03;;;16.88
31921;BMP280;66485;52.128;4.436;2023-02-26T08:07:59;102610.88;;;16.88
31921;BMP280;66485;52.128;4.436;2023-02-26T08:10:26;102624.84;;;16.90
31921;BMP280;66485;52.128;4.436;2023-02-26T08:12:52;102617.84;;;16.89
31921;BMP280;66485;52.128;4.436;2023-02-26T08:15:17;102618.66;;;16.90
31921;BMP280;66485;52.128;4.436;2023-02-26T08:17:43;102624.06;;;16.90
31921;BMP280;66485;52.128;4.436;2023-02-26T08:20:09;102624.06;;;16.90
31921;BMP280;66485;52.128;4.436;2023-02-26T08:22:34;102631.38;;;16.89
31921;BMP280;66485;52.128;4.436;2023-02-26T08:25:00;102636.44;;;16.91
31921;BMP280;66485;52.128;4.436;2023-02-26T08:27:25;102646.94;;;16.92
31921;BMP280;66485;52.128;4.436;2023-02-26T08:29:51;102645.34;;;16.91
31921;BMP280;66485;52.128;4.436;2023-02-26T08:32:17;102650.69;;;16.88
31921;BMP280;66485;52.128;4.436;2023-02-26T08:34:44;102650.69;;;16.88
31921;BMP280;66485;52.128;4.436;2023-02-26T08:37:10;102645.22;;;16.84
31921;BMP280;66485;52.128;4.436;2023-02-26T08:39:37;102651.03;;;16.86
31921;BMP280;66485;52.128;4.436;2023-02-26T08:42:04;102650.78;;;16.91
31921;BMP280;66485;52.128;4.436;2023-02-26T08:44:30;102661.25;;;16.93
31921;BMP280;66485;52.128;4.436;2023-02-26T08:46:56;102668.63;;;16.96
31921;BMP280;66485;52.128;4.436;2023-02-26T08:49:21;102666.31;;;16.94
31921;BMP280;66485;52.128;4.436;2023-02-26T08:51:46;102676.03;;;16.99
31921;BMP280;66485;52.128;4.436;2023-02-26T08:54:12;102679.88;;;16.98
31921;BMP280;66485;52.128;4.436;2023-02-26T08:56:37;102675.25;;;16.98
31921;BMP280;66485;52.128;4.436;2023-02-26T08:59:03;102679.53;;;16.99
31921;BMP280;66485;52.128;4.436;2023-02-26T09:01:28;102677.97;;;16.98
31921;BMP280;66485;52.128;4.436;2023-02-26T09:03:53;102677.97;;;16.98
31921;BMP280;66485;52.128;4.436;2023-02-26T09:06:18;102689.94;;;16.97
31921;BMP280;66485;52.128;4.436;2023-02-26T09:08:44;102689.94;;;16.97
31921;BMP280;66485;52.128;4.436;2023-02-26T09:11:09;102696.09;;;16.94
31921;BMP280;66485;52.128;4.436;2023-02-26T09:13:34;102691.03;;;16.93
31921;BMP280;66485;52.128;4.436;2023-02-26T09:16:00;102691.03;;;16.93
31921;BMP280;66485;52.128;4.436;2023-02-26T09:18:25;102694.22;;;16.98
31921;BMP280;66485;52.128;4.436;2023-02-26T09:20:50;102694.22;;;16.98
31921;BMP280;66485;52.128;4.436;2023-02-26T09:23:16;102696.50;;;16.96
31921;BMP280;66485;52.128;4.436;2023-02-26T09:25:42;102714.03;;;17.02
31921;BMP280;66485;52.128;4.436;2023-02-26T09:28:07;102717.94;;;17.05
31921;BMP280;66485;52.128;4.436;2023-02-26T09:30:32;102717.94;;;17.05
31921;BMP280;66485;52.128;4.436;2023-02-26T09:32:58;102725.75;;;17.10
31921;BMP280;66485;52.128;4.436;2023-02-26T09:35:23;102727.69;;;17.10
31921;BMP280;66485;52.128;4.436;2023-02-26T09:37:50;102731.66;;;17.16
31921;BMP280;66485;52.128;4.436;2023-02-26T09:40:39;102731.75;;;17.19
31921;BMP280;66485;52.128;4.436;2023-02-26T09:45:37;102735.63;;;17.22
31921;BMP280;66485;52.128;4.436;2023-02-26T09:48:04;102749.34;;;17.29
31921;BMP280;66485;52.128;4.436;2023-02-26T09:50:43;102745.59;;;17.37
31921;BMP280;66485;52.128;4.436;2023-02-26T09:53:20;102747.72;;;17.47
31921;BMP280;66485;52.128;4.436;2023-02-26T09:55:48;102747.72;;;17.47
31921;BMP280;66485;52.128;4.436;2023-02-26T09:58:28;102750.03;;;17.68
31921;BMP280;66485;52.128;4.436;2023-02-26T10:01:13;102745.56;;;17.79
31921;BMP280;66485;52.128;4.436;2023-02-26T10:06:47;102746.78;;;17.85
31921;BMP280;66485;52.128;4.436;2023-02-26T10:11:59;102764.63;;;18.09
31921;BMP280;66485;52.128;4.436;2023-02-26T10:14:47;102769.09;;;18.24
31921;BMP280;66485;52.128;4.436;2023-02-26T10:17:41;102770.34;;;18.30
31921;BMP280;66485;52.128;4.436;2023-02-26T10:20:18;102779.31;;;18.34
31921;BMP280;66485;52.128;4.436;2023-02-26T10:25:19;102787.19;;;18.43
31921;BMP280;66485;52.128;4.436;2023-02-26T10:30:42;102788.00;;;18.47
31921;BMP280;66485;52.128;4.436;2023-02-26T10:35:51;102787.59;;;18.41
31921;BMP280;66485;52.128;4.436;2023-02-26T10:38:19;102787.59;;;18.41
31921;BMP280;66485;52.128;4.436;2023-02-26T10:40:59;102800.41;;;18.44
31921;BMP280;66485;52.128;4.436;2023-02-26T10:43:31;102800.41;;;18.44
31921;BMP280;66485;52.128;4.436;2023-02-26T10:48:50;102810.50;;;18.47
31921;BMP280;66485;52.128;4.436;2023-02-26T10:51:19;102812.34;;;18.40
31921;BMP280;66485;52.128;4.436;2023-02-26T10:56:35;102810.16;;;18.23
31921;BMP280;66485;52.128;4.436;2023-02-26T10:59:00;102810.16;;;18.23
31921;BMP280;66485;52.128;4.436;2023-02-26T11:01:28;102817.34;;;18.38
31921;BMP280;66485;52.128;4.436;2023-02-26T11:04:05;102815.69;;;18.30
31921;BMP280;66485;52.128;4.436;2023-02-26T11:06:39;102819.41;;;18.44
31921;BMP280;66485;52.128;4.436;2023-02-26T11:09:19;102819.41;;;18.44
31921;BMP280;66485;52.128;4.436;2023-02-26T11:14:10;102828.88;;;18.58
31921;BMP280;66485;52.128;4.436;2023-02-26T11:16:42;102824.34;;;18.65
31921;BMP280;66485;52.128;4.436;2023-02-26T11:19:12;102822.28;;;18.55
31921;BMP280;66485;52.128;4.436;2023-02-26T11:21:40;102817.56;;;18.52
31921;BMP280;66485;52.128;4.436;2023-02-26T11:24:12;102817.56;;;18.52
31921;BMP280;66485;52.128;4.436;2023-02-26T11:26:42;102816.72;;;18.48
31921;BMP280;66485;52.128;4.436;2023-02-26T11:29:15;102814.78;;;18.48
31921;BMP280;66485;52.128;4.436;2023-02-26T11:31:41;102819.34;;;18.71
31921;BMP280;66485;52.128;4.436;2023-02-26T11:34:10;102815.13;;;18.73
31921;BMP280;66485;52.128;4.436;2023-02-26T11:36:38;102817.94;;;18.80
31921;BMP280;66485;52.128;4.436;2023-02-26T11:39:13;102807.19;;;18.87
31921;BMP280;66485;52.128;4.436;2023-02-26T11:41:39;102816.16;;;18.95
31921;BMP280;66485;52.128;4.436;2023-02-26T11:46:45;102814.25;;;18.96
31921;BMP280;66485;52.128;4.436;2023-02-26T11:49:13;102809.34;;;18.75
31921;BMP280;66485;52.128;4.436;2023-02-26T11:51:42;102812.63;;;18.91
31921;BMP280;66485;52.128;4.436;2023-02-26T11:54:24;102811.63;;;18.73
31921;BMP280;66485;52.128;4.436;2023-02-26T11:56:51;102808.50;;;18.71
31921;BMP280;66485;52.128;4.436;2023-02-26T11:59:20;102805.63;;;18.86
31921;BMP280;66485;52.128;4.436;2023-02-26T12:01:46;102813.19;;;18.74
31921;BMP280;66485;52.128;4.436;2023-02-26T12:04:14;102809.69;;;18.73
31921;BMP280;66485;52.128;4.436;2023-02-26T12:06:40;102799.75;;;18.84
31921;BMP280;66485;52.128;4.436;2023-02-26T12:09:13;102806.44;;;18.90
31921;BMP280;66485;52.128;4.436;2023-02-26T12:12:05;102811.84;;;18.87
31921;BMP280;66485;52.128;4.436;2023-02-26T12:17:27;102802.09;;;19.19
31921;BMP280;66485;52.128;4.436;2023-02-26T12:25:15;102808.78;;;19.29
31921;BMP280;66485;52.128;4.436;2023-02-26T12:36:43;102807.28;;;18.98
31921;BMP280;66485;52.128;4.436;2023-02-26T12:39:40;102810.28;;;19.23
31921;BMP280;66485;52.128;4.436;2023-02-26T12:45:46;102811.16;;;19.30
31921;BMP280;66485;52.128;4.436;2023-02-26T12:48:47;102815.56;;;19.46
31921;BMP280;66485;52.128;4.436;2023-02-26T12:59:57;102826.81;;;19.92
31921;BMP280;66485;52.128;4.436;2023-02-26T13:02:44;102818.69;;;19.95
31921;BMP280;66485;52.128;4.436;2023-02-26T13:10:36;102814.03;;;19.96
31921;BMP280;66485;52.128;4.436;2023-02-26T13:13:16;102814.03;;;19.96
31921;BMP280;66485;52.128;4.436;2023-02-26T13:18:53;102813.75;;;20.11
31921;BMP280;66485;52.128;4.436;2023-02-26T13:21:29;102813.75;;;20.11
31921;BMP280;66485;52.128;4.436;2023-02-26T13:27:01;102810.72;;;20.24
31921;BMP280;66485;52.128;4.436;2023-02-26T13:29:32;102804.88;;;20.22
31921;BMP280;66485;52.128;4.436;2023-02-26T13:32:07;102815.28;;;20.09
31921;BMP280;66485;52.128;4.436;2023-02-26T13:34:56;102813.81;;;20.19
31921;BMP280;66485;52.128;4.436;2023-02-26T13:37:36;102807.69;;;20.32
31921;BMP280;66485;52.128;4.436;2023-02-26T13:51:48;102800.03;;;20.63
31921;BMP280;66485;52.128;4.436;2023-02-26T14:00:21;102792.28;;;20.75
31921;BMP280;66485;52.128;4.436;2023-02-26T14:03:39;102794.63;;;20.73
31921;BMP280;66485;52.128;4.436;2023-02-26T14:08:42;102799.28;;;20.62
31921;BMP280;66485;52.128;4.436;2023-02-26T14:11:36;102795.81;;;20.79
31921;BMP280;66485;52.128;4.436;2023-02-26T14:24:54;102802.09;;;20.91
31921;BMP280;66485;52.128;4.436;2023-02-26T14:29:59;102806.75;;;20.94
31921;BMP280;66485;52.128;4.436;2023-02-26T14:35:11;102800.53;;;20.97
31921;BMP280;66485;52.128;4.436;2023-02-26T14:37:39;102800.56;;;21.04
31921;BMP280;66485;52.128;4.436;2023-02-26T14:40:20;102804.81;;;21.08
31921;BMP280;66485;52.128;4.436;2023-02-26T14:42:56;102803.66;;;21.06
31921;BMP280;66485;52.128;4.436;2023-02-26T14:45:40;102811.88;;;21.13
31921;BMP280;66485;52.128;4.436;2023-02-26T14:48:12;102805.63;;;21.05
31921;BMP280;66485;52.128;4.436;2023-02-26T14:54:03;102801.59;;;20.60
31921;BMP280;66485;52.128;4.436;2023-02-26T14:57:07;102804.72;;;20.62
31921;BMP280;66485;52.128;4.436;2023-02-26T14:59:52;102809.91;;;21.03
31921;BMP280;66485;52.128;4.436;2023-02-26T15:02:36;102807.56;;;21.08
31921;BMP280;66485;52.128;4.436;2023-02-26T15:08:08;102812.63;;;21.17
31921;BMP280;66485;52.128;4.436;2023-02-26T15:21:46;102811.06;;;21.02
31921;BMP280;66485;52.128;4.436;2023-02-26T15:24:17;102811.06;;;21.02
31921;BMP280;66485;52.128;4.436;2023-02-26T15:26:49;102814.13;;;20.79
31921;BMP280;66485;52.128;4.436;2023-02-26T15:29:15;102825.81;;;20.97
31921;BMP280;66485;52.128;4.436;2023-02-26T15:31:48;102815.31;;;20.96
31921;BMP280;66485;52.128;4.436;2023-02-26T15:34:15;102822.38;;;21.07
31921;BMP280;66485;52.128;4.436;2023-02-26T15:36:45;102822.38;;;21.07
31921;BMP280;66485;52.128;4.436;2023-02-26T15:39:14;102818.06;;;20.99
31921;BMP280;66485;52.128;4.436;2023-02-26T15:41:40;102818.06;;;20.99
31921;BMP280;66485;52.128;4.436;2023-02-26T15:44:09;102826.44;;;20.48
31921;BMP280;66485;52.128;4.436;2023-02-26T15:46:40;102826.44;;;20.48
31921;BMP280;66485;52.128;4.436;2023-02-26T15:49:08;102828.69;;;20.35
31921;BMP280;66485;52.128;4.436;2023-02-26T15:51:36;102827.94;;;20.38
31921;BMP280;66485;52.128;4.436;2023-02-26T15:54:02;102834.72;;;20.76
31921;BMP280;66485;52.128;4.436;2023-02-26T15:56:31;102831.97;;;20.76
31921;BMP280;66485;52.128;4.436;2023-02-26T15:59:01;102839.81;;;20.81
31921;BMP280;66485;52.128;4.436;2023-02-26T16:01:29;102839.81;;;20.81
31921;BMP280;66485;52.128;4.436;2023-02-26T16:03:57;102834.75;;;20.87
31921;BMP280;66485;52.128;4.436;2023-02-26T16:06:30;102841.75;;;20.84
31921;BMP280;66485;52.128;4.436;2023-02-26T16:08:55;102844.47;;;20.81
31921;BMP280;66485;52.128;4.436;2023-02-26T16:11:23;102842.13;;;20.79
31921;BMP280;66485;52.128;4.436;2023-02-26T16:13:52;102842.13;;;20.79
31921;BMP280;66485;52.128;4.436;2023-02-26T16:16:23;102844.81;;;20.76
31921;BMP280;66485;52.128;4.436;2023-02-26T16:18:49;102847.94;;;20.74
31921;BMP280;66485;52.128;4.436;2023-02-26T16:21:35;102840.53;;;20.75
31921;BMP280;66485;52.128;4.436;2023-02-26T16:24:04;102838.16;;;20.59
31921;BMP280;66485;52.128;4.436;2023-02-26T16:26:32;102838.16;;;20.59
31921;BMP280;66485;52.128;4.436;2023-02-26T16:29:03;102832.22;;;20.36
31921;BMP280;66485;52.128;4.436;2023-02-26T16:31:31;102841.50;;;20.28
31921;BMP280;66485;52.128;4.436;2023-02-26T16:34:03;102849.25;;;20.26
31921;BMP280;66485;52.128;4.436;2023-02-26T16:36:39;102843.81;;;20.33
31921;BMP280;66485;52.128;4.436;2023-02-26T16:41:35;102851.94;;;20.22
31921;BMP280;66485;52.128;4.436;2023-02-26T16:44:03;102852.69;;;20.16
31921;BMP280;66485;52.128;4.436;2023-02-26T16:46:42;102852.69;;;20.16
31921;BMP280;66485;52.128;4.436;2023-02-26T16:49:19;102846.75;;;20.03
31921;BMP280;66485;52.128;4.436;2023-02-26T16:51:46;102846.75;;;20.03
31921;BMP280;66485;52.128;4.436;2023-02-26T16:54:18;102859.47;;;19.92
31921;BMP280;66485;52.128;4.436;2023-02-26T16:56:45;102872.25;;;19.84
31921;BMP280;66485;52.128;4.436;2023-02-26T16:59:26;102860.97;;;19.82
31921;BMP280;66485;52.128;4.436;2023-02-26T17:02:12;102860.97;;;19.82